Walhalla, Michigan
Current Conditions -  °F | °C
As of 9:35 AM on Sunday 23 Nov 2014 (Local Time) from KLDM Reporting Station
Overcast Overcast  
Wind Chill: 44°   Ceiling: 1500
Heat Index: 49°   Visibility: 10mi
Dew Point: 47°   Wind: 15mph
Humidity: 90%   Direction: 190°S
Pressure: 29.75"   Gusts: 22mph
Location:  43.95°N, 86.11°W
Report Text: KLDM 231435Z AUTO 19013G19KT 10SM OVC015 10/08 A2975 RMK AO2 T00960081
Loading
Personal Weather Stations






























Interactive Weather Map New forecast layout! Learn more

10-Day Weather Forecast

Advertisements
Track Severe Weather on mobile